Time;durP1;ratioP1;P1;durP2;ratioP2;P2;SDS_P1;SDS_P2;PMS_P1;PMS_P2;Temp;Humidity;BMP_temperature;BMP_pressure;BME280_temperature;BME280_humidity;BME280_pressure;Samples;Min_cycle;Max_cycle;Signal;HPM_P1;HPM_P2
2021/09/12 00:00:05;;;;;;;2.00;1.05;;;;;;;14.12;70.80;100672.94;4988587;28;20389;-74
2021/09/12 00:02:30;;;;;;;2.92;2.10;;;;;;;14.09;71.56;100673.53;4990833;28;20044;-75
2021/09/12 00:04:56;;;;;;;3.55;1.60;;;;;;;14.07;71.21;100672.97;4975067;28;20845;-75
2021/09/12 00:07:21;;;;;;;3.50;1.42;;;;;;;14.02;71.66;100664.75;4992958;28;20030;-74
2021/09/12 00:09:46;;;;;;;1.85;1.52;;;;;;;13.94;71.59;100663.44;5004306;28;20034;-76
2021/09/12 00:12:12;;;;;;;2.00;1.10;;;;;;;13.93;71.55;100671.94;4988859;28;20038;-75
2021/09/12 00:14:38;;;;;;;1.85;0.90;;;;;;;13.88;71.70;100663.72;4987814;28;20396;-75
2021/09/12 00:17:03;;;;;;;1.20;1.20;;;;;;;13.88;71.23;100667.28;4982391;28;20026;-74
2021/09/12 00:19:29;;;;;;;4.53;1.35;;;;;;;13.86;71.15;100663.19;4987789;28;20038;-76
2021/09/12 00:21:54;;;;;;;2.72;1.13;;;;;;;13.84;71.31;100657.97;4990869;28;20030;-77
2021/09/12 00:24:20;;;;;;;3.28;1.70;;;;;;;13.81;71.45;100665.97;5001993;28;20061;-76
2021/09/12 00:26:45;;;;;;;1.20;1.10;;;;;;;13.78;71.34;100659.09;5000279;28;20089;-76
2021/09/12 00:29:11;;;;;;;2.72;1.30;;;;;;;13.75;71.41;100660.47;4998929;28;20042;-77
2021/09/12 00:31:36;;;;;;;2.45;1.25;;;;;;;13.73;71.91;100661.88;5000029;28;20026;-75
2021/09/12 00:34:02;;;;;;;1.25;1.15;;;;;;;13.69;72.15;100656.09;4995143;28;20127;-77
2021/09/12 00:36:28;;;;;;;1.13;1.00;;;;;;;13.69;72.28;100667.09;4997699;28;20026;-75
2021/09/12 00:38:53;;;;;;;1.50;1.40;;;;;;;13.68;71.83;100659.97;5004924;28;20026;-76
2021/09/12 00:41:18;;;;;;;1.55;1.45;;;;;;;13.67;72.25;100663.81;5000379;28;20026;-78
2021/09/12 00:43:44;;;;;;;2.10;1.23;;;;;;;13.63;72.21;100662.75;4994917;28;20527;-77
2021/09/12 00:46:10;;;;;;;1.20;1.10;;;;;;;13.63;72.94;100662.75;4994580;28;20031;-77
2021/09/12 00:48:36;;;;;;;2.45;1.30;;;;;;;13.60;73.06;100652.31;4976435;28;20084;-77
2021/09/12 00:51:04;;;;;;;0.93;0.93;;;;;;;13.58;73.29;100654.50;4995778;28;20077;-78
2021/09/12 00:53:32;;;;;;;1.42;1.10;;;;;;;13.57;72.83;100659.19;4993442;28;20089;-77
2021/09/12 00:56:00;;;;;;;1.38;1.38;;;;;;;13.53;72.93;100649.03;4994612;28;20037;-77
2021/09/12 00:58:28;;;;;;;2.63;1.05;;;;;;;13.56;72.46;100651.22;4987278;28;20037;-77
2021/09/12 01:00:54;;;;;;;1.15;1.08;;;;;;;13.55;73.02;100652.31;4999325;28;20100;-76
2021/09/12 01:03:19;;;;;;;1.20;1.20;;;;;;;13.55;73.05;100655.06;5011068;28;20022;-76
2021/09/12 01:05:45;;;;;;;1.45;1.35;;;;;;;13.56;72.61;100651.22;5010036;28;20030;-75
2021/09/12 01:08:11;;;;;;;1.48;1.38;;;;;;;13.55;72.74;100649.56;5010132;28;20038;-75
2021/09/12 01:10:37;;;;;;;1.70;1.58;;;;;;;13.55;72.96;100639.41;5007492;28;20374;-76
2021/09/12 01:13:04;;;;;;;1.27;1.17;;;;;;;13.58;73.06;100643.50;4992080;28;20358;-76
2021/09/12 01:15:30;;;;;;;1.30;1.20;;;;;;;13.60;73.19;100642.13;5010362;28;20094;-76
2021/09/12 01:17:56;;;;;;;7.88;1.13;;;;;;;13.59;73.31;100636.91;5001592;28;20053;-76
2021/09/12 01:20:22;;;;;;;4.05;1.30;;;;;;;13.63;72.76;100629.75;4989792;28;20430;-78
2021/09/12 01:22:48;;;;;;;1.25;1.15;;;;;;;13.62;73.25;100639.09;5012881;28;20018;-77
2021/09/12 01:25:13;;;;;;;1.90;1.25;;;;;;;13.62;73.14;100639.09;4991276;28;20077;-76
2021/09/12 01:27:38;;;;;;;3.00;1.10;;;;;;;13.67;72.86;100641.84;4995289;28;20036;-76
2021/09/12 01:30:08;;;;;;;1.83;1.27;;;;;;;13.67;72.90;100630.00;5008322;28;20053;-76
2021/09/12 01:32:34;;;;;;;1.55;1.10;;;;;;;13.70;73.21;100630.28;4992669;28;20472;-74
2021/09/12 01:34:59;;;;;;;2.38;1.17;;;;;;;13.71;73.01;100634.69;5009231;28;20075;-75
2021/09/12 01:37:25;;;;;;;1.38;1.27;;;;;;;13.73;73.12;100637.16;5011551;28;20026;-76
2021/09/12 01:39:50;;;;;;;2.58;1.10;;;;;;;13.72;72.64;100628.06;5009549;28;20088;-75
2021/09/12 01:42:16;;;;;;;1.10;1.10;;;;;;;13.76;73.11;100642.88;5011314;28;20018;-75
2021/09/12 01:44:50;;;;;;;0.90;0.90;;;;;;;13.79;73.10;100638.75;5011809;28;20025;-75
2021/09/12 01:47:16;;;;;;;1.13;1.05;;;;;;;13.78;72.88;100637.94;5006559;28;20065;-76
2021/09/12 01:49:44;;;;;;;1.15;1.10;;;;;;;13.78;72.42;100637.94;5008822;28;20037;-77
2021/09/12 01:52:11;;;;;;;1.52;0.98;;;;;;;13.81;73.07;100646.72;5010906;28;20120;-77
2021/09/12 01:54:37;;;;;;;1.27;1.17;;;;;;;13.79;72.87;100644.25;5013868;28;20562;-72
2021/09/12 01:57:03;;;;;;;1.33;1.23;;;;;;;13.82;72.48;100642.88;4997822;28;20048;-73
2021/09/12 01:59:31;;;;;;;5.35;1.20;;;;;;;13.78;73.01;100642.59;4996455;28;20432;-77
2021/09/12 02:01:57;;;;;;;1.33;1.23;;;;;;;13.83;73.17;100644.50;4997165;28;20034;-77
2021/09/12 02:04:22;;;;;;;1.00;0.90;;;;;;;13.82;72.63;100640.13;5000226;28;20034;-78
2021/09/12 02:06:48;;;;;;;2.20;1.20;;;;;;;13.84;73.26;100640.66;4982068;28;20435;-77
2021/09/12 02:09:13;;;;;;;0.90;0.90;;;;;;;13.86;73.11;100650.28;5010949;28;20022;-78
2021/09/12 02:11:39;;;;;;;5.07;1.00;;;;;;;13.84;72.93;100646.97;4984883;28;20026;-78
2021/09/12 02:14:04;;;;;;;1.10;1.00;;;;;;;13.86;73.00;100650.28;5011693;28;20039;-72
2021/09/12 02:16:30;;;;;;;0.80;0.80;;;;;;;13.89;72.26;100654.38;4993316;28;20031;-72
2021/09/12 02:18:56;;;;;;;5.60;1.42;;;;;;;13.85;72.55;100643.13;4985115;28;20026;-72
2021/09/12 02:21:21;;;;;;;0.80;0.70;;;;;;;13.89;72.71;100646.94;4986193;28;20050;-73
2021/09/12 02:23:47;;;;;;;1.02;0.98;;;;;;;13.87;72.62;100640.94;4989298;28;20097;-71
2021/09/12 02:26:12;;;;;;;1.13;1.00;;;;;;;13.90;72.38;100651.34;5000539;28;20035;-74
2021/09/12 02:28:38;;;;;;;2.05;1.10;;;;;;;13.89;72.55;100648.88;4991389;28;20040;-72
2021/09/12 02:31:06;;;;;;;5.15;1.20;;;;;;;13.88;72.85;100650.00;4992628;28;20061;-72
2021/09/12 02:33:33;;;;;;;3.25;1.20;;;;;;;13.87;72.15;100645.59;4991236;28;20030;-72
2021/09/12 02:36:01;;;;;;;0.93;0.93;;;;;;;13.87;72.51;100646.44;5017269;28;20109;-72
2021/09/12 02:38:27;;;;;;;1.10;0.80;;;;;;;13.90;72.35;100650.50;4986481;28;20034;-72
2021/09/12 02:40:52;;;;;;;0.93;0.93;;;;;;;13.91;72.12;100649.41;4990448;28;20036;-71
2021/09/12 02:43:18;;;;;;;0.70;0.70;;;;;;;13.94;71.98;100657.09;4968788;28;20072;-71
2021/09/12 02:45:43;;;;;;;1.85;0.90;;;;;;;13.95;71.94;100658.75;4971556;28;20056;-70
2021/09/12 02:48:09;;;;;;;0.60;0.60;;;;;;;13.91;72.04;100646.66;4989223;28;20084;-71
2021/09/12 02:50:34;;;;;;;1.52;0.73;;;;;;;13.94;72.00;100651.59;4982199;28;20592;-72
2021/09/12 02:52:59;;;;;;;3.03;0.73;;;;;;;13.93;71.72;100648.03;4991647;28;20249;-72
2021/09/12 02:55:25;;;;;;;0.93;0.93;;;;;;;13.93;72.02;100647.19;4987853;28;20030;-71
2021/09/12 02:57:50;;;;;;;1.48;0.77;;;;;;;13.94;71.61;100654.34;4995851;28;20137;-72
2021/09/12 03:00:16;;;;;;;0.82;0.73;;;;;;;13.94;72.24;100646.09;4995189;28;20098;-72
2021/09/12 03:02:42;;;;;;;1.02;0.70;;;;;;;13.95;71.51;100647.75;4994276;28;20561;-72
2021/09/12 03:05:08;;;;;;;0.60;0.60;;;;;;;13.91;71.87;100646.66;4986371;28;20049;-74
2021/09/12 03:07:33;;;;;;;1.02;0.90;;;;;;;13.92;71.71;100648.31;4995330;28;20029;-72
2021/09/12 03:09:59;;;;;;;0.50;0.50;;;;;;;13.89;71.24;100641.44;4966567;28;20065;-72
2021/09/12 03:12:24;;;;;;;0.50;0.45;;;;;;;13.88;71.89;100636.25;5010710;28;20057;-72
2021/09/12 03:14:50;;;;;;;0.73;0.60;;;;;;;13.88;71.85;100636.25;4975166;28;20065;-73
2021/09/12 03:17:15;;;;;;;2.33;0.98;;;;;;;13.93;71.50;100644.44;4991234;28;20054;-72
2021/09/12 03:19:41;;;;;;;0.95;0.68;;;;;;;13.89;71.36;100644.19;4987733;28;20061;-74
2021/09/12 03:22:07;;;;;;;0.68;0.68;;;;;;;13.89;71.77;100649.69;4990664;28;20030;-72
2021/09/12 03:24:32;;;;;;;0.50;0.50;;;;;;;13.85;71.10;100648.63;4995319;28;20476;-76
2021/09/12 03:26:58;;;;;;;0.32;0.32;;;;;;;13.79;71.36;100653.31;4973157;28;20058;-71
2021/09/12 03:29:23;;;;;;;2.95;0.32;;;;;;;13.82;71.11;100653.88;4986431;28;20037;-72
2021/09/12 03:31:49;;;;;;;0.10;0.10;;;;;;;13.80;71.35;100645.91;4991674;28;20042;-72
2021/09/12 03:34:14;;;;;;;0.30;0.30;;;;;;;13.78;71.40;100657.19;4985361;28;20590;-71
2021/09/12 03:36:40;;;;;;;0.43;0.43;;;;;;;13.73;71.47;100651.69;4989979;28;20038;-73
2021/09/12 03:39:08;;;;;;;0.35;0.35;;;;;;;13.71;71.59;100653.91;4967846;28;20030;-73
2021/09/12 03:41:33;;;;;;;0.55;0.55;;;;;;;13.68;71.34;100649.00;4982079;28;20061;-73
2021/09/12 03:43:59;;;;;;;0.60;0.60;;;;;;;13.64;71.72;100653.41;4979392;28;20046;-73
2021/09/12 03:46:24;;;;;;;1.30;0.60;;;;;;;13.58;71.46;100652.59;4989064;28;20030;-72
2021/09/12 03:48:50;;;;;;;0.30;0.30;;;;;;;13.53;71.22;100654.53;4986396;28;20080;-71
2021/09/12 03:51:15;;;;;;;0.50;0.50;;;;;;;13.49;71.87;100656.19;4987918;28;20053;-72
2021/09/12 03:53:43;;;;;;;0.40;0.40;;;;;;;13.46;71.19;100654.00;4989194;28;20034;-72
2021/09/12 03:56:08;;;;;;;0.40;0.40;;;;;;;13.41;71.42;100661.16;4992834;28;20629;-73
2021/09/12 03:58:34;;;;;;;0.50;0.50;;;;;;;13.38;71.87;100663.66;4989313;28;20034;-72
2021/09/12 04:00:59;;;;;;;0.70;0.70;;;;;;;13.32;71.53;100665.56;4988113;28;20057;-72
2021/09/12 04:03:25;;;;;;;0.40;0.40;;;;;;;13.32;72.16;100662.81;4986889;28;20353;-71
2021/09/12 04:05:50;;;;;;;0.47;0.47;;;;;;;13.29;71.66;100666.13;4988953;28;20022;-73
2021/09/12 04:08:16;;;;;;;0.43;0.43;;;;;;;13.29;71.52;100663.38;4986236;28;20081;-71
2021/09/12 04:10:41;;;;;;;0.73;0.73;;;;;;;13.26;71.72;100663.94;5003948;28;20137;-70
2021/09/12 04:13:07;;;;;;;0.93;0.93;;;;;;;13.24;72.26;100666.09;4986328;28;20066;-71
2021/09/12 04:15:32;;;;;;;0.98;0.90;;;;;;;13.24;72.33;100660.63;4985704;28;20071;-71
2021/09/12 04:17:58;;;;;;;0.80;0.70;;;;;;;13.23;72.35;100653.50;4991244;28;20054;-71
2021/09/12 04:20:23;;;;;;;0.68;0.68;;;;;;;13.24;71.87;100657.88;4988898;28;20041;-70
2021/09/12 04:22:49;;;;;;;0.70;0.70;;;;;;;13.20;72.65;100648.53;4986385;28;20384;-70
2021/09/12 04:25:14;;;;;;;0.70;0.70;;;;;;;13.15;72.45;100645.81;4988398;28;20045;-71
2021/09/12 04:27:40;;;;;;;1.25;0.70;;;;;;;13.12;72.63;100646.38;4986627;28;20038;-70
2021/09/12 04:30:08;;;;;;;0.88;0.85;;;;;;;13.13;72.34;100651.59;4989106;28;20034;-71
2021/09/12 04:32:33;;;;;;;0.90;0.88;;;;;;;13.12;73.00;100655.44;4997541;28;20037;-71
2021/09/12 04:34:59;;;;;;;0.73;0.73;;;;;;;13.12;72.76;100649.13;4981843;28;20043;-69
2021/09/12 04:37:24;;;;;;;0.85;0.85;;;;;;;13.15;73.29;100651.31;4971085;28;20464;-70
2021/09/12 04:39:50;;;;;;;0.70;0.70;;;;;;;13.13;72.65;100642.50;4989429;28;20085;-72
2021/09/12 04:42:17;;;;;;;0.77;0.55;;;;;;;13.13;73.24;100639.78;4988467;28;20488;-73
2021/09/12 04:44:43;;;;;;;0.63;0.40;;;;;;;13.11;72.56;100645.53;4970990;28;20034;-74
2021/09/12 04:47:08;;;;;;;0.28;0.28;;;;;;;13.08;72.49;100641.44;4989788;28;20027;-72
2021/09/12 04:49:36;;;;;;;0.30;0.30;;;;;;;13.05;72.73;100636.50;4956419;28;20042;-73
2021/09/12 04:52:01;;;;;;;0.17;0.17;;;;;;;13.02;72.85;100631.56;4974356;28;20037;-72
2021/09/12 04:54:27;;;;;;;0.30;0.30;;;;;;;13.02;72.37;100639.78;4990321;28;20023;-72
2021/09/12 04:56:53;;;;;;;0.10;0.10;;;;;;;13.04;72.93;100650.50;4993881;28;20117;-73
2021/09/12 04:59:18;;;;;;;0.20;0.20;;;;;;;13.00;72.24;100639.25;4992533;28;20484;-73
2021/09/12 05:01:46;;;;;;;3.22;0.20;;;;;;;12.99;72.92;100648.59;4988990;28;20046;-72
2021/09/12 05:04:12;;;;;;;0.10;0.10;;;;;;;12.98;72.78;100644.22;4990383;28;20092;-73
2021/09/12 05:06:37;;;;;;;0.10;0.10;;;;;;;12.97;72.22;100645.31;4974971;28;20034;-71
2021/09/12 05:09:03;;;;;;;0.10;0.10;;;;;;;12.93;72.15;100649.69;4996709;28;20054;-70
2021/09/12 05:11:28;;;;;;;0.08;0.08;;;;;;;12.89;72.41;100649.44;4988386;28;20026;-72
2021/09/12 05:13:54;;;;;;;0.00;0.00;;;;;;;12.89;72.54;100651.34;5001030;28;20069;-76
2021/09/12 05:16:19;;;;;;;0.10;0.10;;;;;;;12.86;72.66;100655.44;4986323;28;20065;-76
2021/09/12 05:18:45;;;;;;;0.10;0.10;;;;;;;12.83;72.53;100655.19;4993620;28;20034;-75
2021/09/12 05:21:10;;;;;;;0.25;0.25;;;;;;;12.77;72.59;100648.06;4993600;28;20476;-75
2021/09/12 05:23:36;;;;;;;0.38;0.38;;;;;;;12.73;72.87;100656.84;4987348;28;20029;-75
2021/09/12 05:26:01;;;;;;;0.40;0.40;;;;;;;12.70;72.13;100668.38;5007902;28;20045;-75
2021/09/12 05:28:27;;;;;;;0.35;0.35;;;;;;;12.65;72.40;100671.09;4991078;28;20034;-76
2021/09/12 05:30:52;;;;;;;0.40;0.40;;;;;;;12.60;72.63;100673.88;4998246;28;20376;-76
2021/09/12 05:33:21;;;;;;;0.65;0.65;;;;;;;12.58;73.00;100673.31;4980856;28;20022;-77
2021/09/12 05:35:48;;;;;;;0.28;0.28;;;;;;;12.52;72.93;100668.91;4970813;28;20034;-76
2021/09/12 05:38:14;;;;;;;0.68;0.50;;;;;;;12.51;72.85;100670.00;4977978;28;20124;-75
2021/09/12 05:40:39;;;;;;;0.30;0.30;;;;;;;12.46;72.98;100670.81;4985110;28;20465;-75
2021/09/12 05:43:05;;;;;;;0.20;0.20;;;;;;;12.42;72.86;100661.50;4991267;28;20023;-77
2021/09/12 05:45:30;;;;;;;0.30;0.30;;;;;;;12.42;73.03;100672.47;4973761;28;20788;-74
2021/09/12 05:47:56;;;;;;;0.47;0.38;;;;;;;12.35;73.25;100667.25;4985388;28;20034;-74
2021/09/12 05:50:21;;;;;;;0.10;0.10;;;;;;;12.40;72.97;100666.44;4990893;28;20089;-75
2021/09/12 05:52:47;;;;;;;0.20;0.20;;;;;;;12.38;72.61;100661.22;4988484;28;20035;-74
2021/09/12 05:55:12;;;;;;;0.17;0.15;;;;;;;12.42;72.64;100666.16;4989409;28;20031;-74
2021/09/12 05:57:40;;;;;;;0.20;0.20;;;;;;;12.43;72.78;100668.63;4985183;28;20121;-75
2021/09/12 06:00:07;;;;;;;0.20;0.20;;;;;;;12.43;72.94;100674.13;4965983;28;20624;-75
2021/09/12 06:02:32;;;;;;;0.20;0.20;;;;;;;12.48;72.91;100676.03;4985062;28;20424;-75
2021/09/12 06:05:02;;;;;;;0.20;0.17;;;;;;;12.50;73.14;100674.69;4984172;28;20133;-75
2021/09/12 06:07:27;;;;;;;0.22;0.22;;;;;;;12.55;72.96;100682.06;4971938;28;20488;-75
2021/09/12 06:09:53;;;;;;;0.10;0.10;;;;;;;12.57;73.17;100677.97;4952193;28;20116;-75
2021/09/12 06:12:18;;;;;;;0.45;0.45;;;;;;;12.62;73.42;100682.63;4987019;28;20034;-75
2021/09/12 06:14:44;;;;;;;0.65;0.50;;;;;;;12.66;72.88;100685.63;4986955;28;20034;-74
2021/09/12 06:17:09;;;;;;;0.63;0.63;;;;;;;12.69;73.02;100683.19;4968217;28;20035;-73
2021/09/12 06:19:36;;;;;;;0.52;0.50;;;;;;;12.71;73.04;100680.16;4984166;28;20485;-74
2021/09/12 06:22:03;;;;;;;0.50;0.50;;;;;;;12.78;73.10;100690.88;4980476;28;20170;-73
2021/09/12 06:24:29;;;;;;;0.68;0.68;;;;;;;12.79;73.42;100681.53;4966309;28;20034;-73
2021/09/12 06:26:57;;;;;;;0.70;0.70;;;;;;;12.82;73.14;100681.81;4983624;28;20033;-77
2021/09/12 06:29:46;;;;;;;0.40;0.40;;;;;;;12.87;73.54;100684.56;4989485;28;20031;-74
2021/09/12 06:32:21;;;;;;;0.43;0.43;;;;;;;12.87;73.42;100678.25;4990078;28;20118;-70
2021/09/12 06:34:46;;;;;;;0.65;0.65;;;;;;;12.84;73.67;100673.31;4986629;28;20716;-72
2021/09/12 06:37:17;;;;;;;0.60;0.60;;;;;;;12.89;73.19;100670.56;4971338;28;20117;-73
2021/09/12 06:39:42;;;;;;;0.82;0.82;;;;;;;12.94;73.49;100676.06;4965853;28;20031;-72
2021/09/12 06:42:10;;;;;;;0.70;0.70;;;;;;;12.99;73.04;100676.03;4985192;28;20129;-74
2021/09/12 06:44:39;;;;;;;0.60;0.60;;;;;;;13.12;73.51;100684.81;5002870;28;20122;-74
2021/09/12 06:47:04;;;;;;;0.77;0.77;;;;;;;13.19;73.58;100697.16;4974435;28;20129;-74
2021/09/12 06:49:29;;;;;;;0.70;0.70;;;;;;;13.22;73.46;100690.28;4988483;28;20102;-75
2021/09/12 06:51:55;;;;;;;1.15;0.93;;;;;;;13.27;73.07;100699.34;4992274;28;20105;-75
2021/09/12 06:54:20;;;;;;;1.63;0.73;;;;;;;13.30;73.36;100697.94;4993603;28;20093;-74
2021/09/12 06:56:46;;;;;;;0.90;0.90;;;;;;;13.28;73.31;100700.16;4992872;28;20037;-74
2021/09/12 06:59:11;;;;;;;1.50;1.40;;;;;;;13.27;73.63;100693.84;4987683;28;20037;-75
2021/09/12 07:01:37;;;;;;;1.45;1.35;;;;;;;13.30;74.07;100705.38;4979113;28;20034;-74
2021/09/12 07:04:02;;;;;;;4.32;1.20;;;;;;;13.33;73.97;100708.41;4990930;28;20030;-75
2021/09/12 07:06:28;;;;;;;2.65;1.40;;;;;;;13.34;73.71;100712.81;5012938;28;20030;-74
2021/09/12 07:08:53;;;;;;;1.58;1.30;;;;;;;13.38;73.63;100713.91;4992495;28;20037;-75
2021/09/12 07:11:19;;;;;;;0.90;0.90;;;;;;;13.43;73.58;100708.41;4973635;28;20049;-75
2021/09/12 07:13:44;;;;;;;1.83;1.10;;;;;;;13.50;74.36;100712.78;5007479;28;20396;-76
2021/09/12 07:16:10;;;;;;;0.90;0.90;;;;;;;13.64;74.17;100713.84;5005403;28;20030;-75
2021/09/12 07:18:35;;;;;;;1.23;1.23;;;;;;;13.73;73.64;100706.66;5018420;28;20373;-75
2021/09/12 07:21:01;;;;;;;1.02;0.98;;;;;;;13.88;73.31;100713.22;5014489;28;20030;-75
2021/09/12 07:23:27;;;;;;;1.23;1.23;;;;;;;14.02;73.53;100706.00;5019207;28;20026;-78
2021/09/12 07:25:52;;;;;;;5.65;1.10;;;;;;;14.21;73.83;100713.63;5021396;28;20064;-77
2021/09/12 07:28:20;;;;;;;0.80;0.80;;;;;;;14.36;73.47;100713.50;5017471;28;20039;-79
2021/09/12 07:30:46;;;;;;;0.77;0.77;;;;;;;14.58;73.53;100720.53;5009519;28;20049;-78
2021/09/12 07:33:11;;;;;;;3.92;0.73;;;;;;;14.74;72.82;100719.34;5010558;28;20034;-78
2021/09/12 07:35:37;;;;;;;0.45;0.45;;;;;;;14.93;72.89;100715.91;5009419;28;20049;-79
2021/09/12 07:38:02;;;;;;;0.30;0.30;;;;;;;15.12;72.53;100719.56;4999808;28;20088;-79
2021/09/12 07:40:28;;;;;;;0.88;0.40;;;;;;;15.34;72.31;100721.03;5017787;28;20025;-79
2021/09/12 07:42:53;;;;;;;0.68;0.68;;;;;;;15.47;71.82;100720.34;5002447;28;20534;-77
2021/09/12 07:45:19;;;;;;;0.55;0.55;;;;;;;15.60;71.31;100718.00;4965500;28;20029;-78
2021/09/12 07:47:44;;;;;;;0.40;0.40;;;;;;;15.68;71.49;100714.59;5004457;28;20042;-79
2021/09/12 07:50:11;;;;;;;0.70;0.70;;;;;;;15.84;71.39;100718.88;5015217;28;20029;-82
2021/09/12 07:52:42;;;;;;;0.30;0.30;;;;;;;16.02;71.18;100720.00;4997318;28;20023;-80
2021/09/12 07:55:14;;;;;;;0.30;0.30;;;;;;;16.29;70.75;100726.00;4993698;28;20484;-81
2021/09/12 07:57:40;;;;;;;0.28;0.28;;;;;;;16.40;70.75;100709.00;4995591;28;20038;-79
2021/09/12 08:00:07;;;;;;;0.20;0.20;;;;;;;16.54;70.41;100714.63;5008984;28;20046;-80
2021/09/12 08:02:33;;;;;;;0.40;0.40;;;;;;;16.73;70.08;100719.28;4969050;28;20038;-79
2021/09/12 08:04:58;;;;;;;0.50;0.40;;;;;;;16.88;69.65;100724.59;5016794;28;20046;-80
2021/09/12 08:07:31;;;;;;;1.35;0.55;;;;;;;17.15;69.31;100717.50;4995170;28;20042;-79
2021/09/12 08:09:59;;;;;;;0.30;0.30;;;;;;;17.49;68.96;100726.59;4977203;28;20447;-79
2021/09/12 08:12:27;;;;;;;0.40;0.40;;;;;;;17.78;68.56;100724.38;4995257;28;20036;-78
2021/09/12 08:14:53;;;;;;;0.60;0.40;;;;;;;18.08;68.19;100727.63;5007459;28;20025;-77
2021/09/12 08:17:18;;;;;;;0.68;0.40;;;;;;;18.43;67.20;100732.72;5000487;28;20116;-78
2021/09/12 08:19:46;;;;;;;0.30;0.30;;;;;;;18.67;67.59;100724.09;4989123;28;20026;-79
2021/09/12 08:22:14;;;;;;;0.50;0.47;;;;;;;18.95;66.97;100733.16;4977302;28;20018;-77
2021/09/12 08:24:42;;;;;;;0.20;0.20;;;;;;;19.34;66.92;100739.91;4998270;28;20031;-81
2021/09/12 08:27:16;;;;;;;0.10;0.10;;;;;;;19.59;66.35;100732.03;4986244;28;20035;-81
2021/09/12 08:30:08;;;;;;;0.10;0.10;;;;;;;19.96;65.33;100746.59;5001997;28;20026;-77
2021/09/12 08:32:31;;;;;;;0.40;0.40;;;;;;;20.21;64.70;100731.13;5010604;28;20054;-77
2021/09/12 08:34:56;;;;;;;0.03;0.03;;;;;;;20.51;64.29;100738.84;5012102;28;20472;-77
2021/09/12 08:37:24;;;;;;;0.17;0.10;;;;;;;20.81;63.86;100739.88;4979706;28;20460;-79
2021/09/12 08:39:50;;;;;;;0.20;0.20;;;;;;;21.37;63.81;100745.47;4988679;28;20022;-75
2021/09/12 08:42:17;;;;;;;0.30;0.20;;;;;;;22.34;63.52;100751.50;5004286;28;20034;-74
2021/09/12 08:44:50;;;;;;;0.60;0.60;;;;;;;23.40;60.13;100745.81;5014886;28;20064;-75
2021/09/12 08:47:16;;;;;;;0.80;0.38;;;;;;;24.41;57.96;100758.28;5008264;28;20032;-74
2021/09/12 08:49:43;;;;;;;0.32;0.30;;;;;;;25.39;55.95;100768.34;5005390;28;20108;-75
2021/09/12 08:52:09;;;;;;;0.22;0.10;;;;;;;26.52;55.41;100772.72;4986411;28;20034;-76
2021/09/12 08:54:35;;;;;;;0.65;0.13;;;;;;;27.65;54.50;100780.19;5000269;28;20038;-76
2021/09/12 08:57:04;;;;;;;0.20;0.20;;;;;;;28.58;51.41;100777.25;5004126;28;20380;-74
2021/09/12 08:59:35;;;;;;;0.10;0.10;;;;;;;29.52;51.20;100772.75;4986152;28;20053;-75
2021/09/12 09:02:09;;;;;;;0.22;0.20;;;;;;;30.09;48.24;100767.59;4999779;28;20109;-74
2021/09/12 09:04:36;;;;;;;0.13;0.13;;;;;;;30.79;47.44;100769.63;5003148;28;20474;-76
2021/09/12 09:07:07;;;;;;;0.73;0.10;;;;;;;31.47;45.68;100783.97;4991356;28;20045;-74
2021/09/12 09:09:48;;;;;;;0.35;0.20;;;;;;;32.19;44.90;100784.00;5007967;28;20050;-75
2021/09/12 09:12:29;;;;;;;0.20;0.20;;;;;;;32.91;43.00;100785.06;4990325;28;20041;-73
2021/09/12 09:15:05;;;;;;;0.10;0.10;;;;;;;33.44;42.29;100783.97;5003430;28;20026;-75
2021/09/12 09:17:42;;;;;;;0.10;0.10;;;;;;;34.21;41.78;100787.78;5000779;28;20033;-75
2021/09/12 09:20:19;;;;;;;0.00;0.00;;;;;;;34.79;40.17;100771.78;5000999;28;20112;-75
2021/09/12 09:22:49;;;;;;;0.28;0.20;;;;;;;35.24;37.76;100781.34;5002081;28;20030;-75
2021/09/12 09:25:18;;;;;;;0.30;0.20;;;;;;;35.48;37.48;100777.34;5004144;28;20072;-74
2021/09/12 09:28:09;;;;;;;0.10;0.10;;;;;;;35.93;36.36;100792.47;4984924;28;20030;-74
2021/09/12 09:30:48;;;;;;;0.15;0.10;;;;;;;36.38;35.43;100782.75;5002186;28;20044;-73
2021/09/12 09:33:19;;;;;;;0.20;0.20;;;;;;;36.61;32.39;100791.22;4991556;28;20038;-73
2021/09/12 09:36:29;;;;;;;0.10;0.10;;;;;;;37.11;31.85;100797.13;5007193;28;20018;-74
2021/09/12 09:38:56;;;;;;;0.10;0.10;;;;;;;37.52;32.33;100792.94;4908804;29;20031;-74
2021/09/12 09:41:22;;;;;;;0.43;0.00;;;;;;;38.04;29.90;100796.94;4973296;28;20037;-72
2021/09/12 09:43:54;;;;;;;0.10;0.10;;;;;;;38.54;29.59;100789.09;5018480;28;20046;-74
2021/09/12 09:46:31;;;;;;;0.10;0.10;;;;;;;39.24;29.63;100787.44;4978007;28;20033;-74
2021/09/12 09:49:20;;;;;;;0.10;0.10;;;;;;;39.84;29.47;100779.38;4990202;28;20041;-75
2021/09/12 09:51:53;;;;;;;0.10;0.10;;;;;;;40.35;26.38;100779.25;5003979;28;20050;-76
2021/09/12 09:54:21;;;;;;;0.10;0.08;;;;;;;40.72;25.98;100770.91;4967360;28;20117;-73
2021/09/12 09:56:50;;;;;;;0.10;0.08;;;;;;;41.21;26.16;100771.50;4987932;28;20022;-73
2021/09/12 09:59:19;;;;;;;0.00;0.00;;;;;;;41.67;25.50;100788.91;5007413;28;20034;-73
2021/09/12 10:01:49;;;;;;;0.10;0.00;;;;;;;42.17;24.43;100783.91;5006236;28;20099;-75
2021/09/12 10:04:19;;;;;;;0.10;0.10;;;;;;;42.55;23.76;100779.72;5003380;28;20034;-74
2021/09/12 10:06:47;;;;;;;0.10;0.10;;;;;;;42.67;22.78;100768.53;4987240;28;20032;-72
2021/09/12 10:09:13;;;;;;;0.10;0.10;;;;;;;42.90;22.04;100769.91;5004237;28;20085;-73
2021/09/12 10:12:01;;;;;;;0.00;0.00;;;;;;;43.65;22.38;100767.53;4969093;28;20069;-72
2021/09/12 10:14:50;;;;;;;0.10;0.10;;;;;;;44.05;20.29;100766.31;5001395;28;20078;-73
2021/09/12 10:17:38;;;;;;;0.10;0.00;;;;;;;44.21;20.01;100759.28;5009195;28;20029;-74
2021/09/12 10:20:24;;;;;;;0.10;0.10;;;;;;;44.67;20.14;100767.50;5009741;28;20046;-73
2021/09/12 10:22:51;;;;;;;0.05;0.00;;;;;;;45.05;19.26;100765.03;5007735;28;20034;-74
2021/09/12 10:25:20;;;;;;;0.15;0.10;;;;;;;45.44;19.04;100761.97;5002905;28;20022;-73
2021/09/12 10:31:28;;;;;;;0.10;0.10;;;;;;;44.48;18.64;100755.34;5009955;28;20030;-72
2021/09/12 10:34:13;;;;;;;0.10;0.05;;;;;;;43.80;18.48;100751.13;4988386;28;20148;-76
2021/09/12 10:36:51;;;;;;;0.10;0.00;;;;;;;43.17;18.54;100751.78;5002041;28;20157;-76
2021/09/12 10:40:06;;;;;;;0.03;0.03;;;;;;;42.82;19.37;100749.34;5003910;28;20025;-80
2021/09/12 10:42:42;;;;;;;0.00;0.00;;;;;;;42.65;19.55;100748.91;4957357;28;20049;-78
2021/09/12 10:45:43;;;;;;;0.08;0.08;;;;;;;42.71;19.20;100754.81;5009267;28;20088;-79
2021/09/12 10:48:24;;;;;;;0.00;0.00;;;;;;;42.63;18.84;100739.19;4930149;28;20051;-77
2021/09/12 10:50:50;;;;;;;0.10;0.10;;;;;;;42.62;18.66;100746.22;4986161;28;20093;-77
2021/09/12 10:53:16;;;;;;;0.10;0.10;;;;;;;42.79;18.43;100749.50;5013041;28;20134;-72
2021/09/12 10:56:02;;;;;;;0.10;0.10;;;;;;;43.03;18.39;100746.75;4981198;28;20802;-74
2021/09/12 10:58:29;;;;;;;0.10;0.10;;;;;;;43.13;18.42;100744.63;4970169;28;20030;-74
2021/09/12 11:00:56;;;;;;;0.10;0.00;;;;;;;43.34;18.07;100745.63;5000258;28;20126;-75
2021/09/12 11:03:25;;;;;;;0.10;0.00;;;;;;;42.96;17.97;100744.19;4989632;28;20030;-73
2021/09/12 11:05:51;;;;;;;0.10;0.10;;;;;;;41.73;17.68;100738.19;4984550;28;20104;-73
2021/09/12 11:08:16;;;;;;;0.10;0.00;;;;;;;40.20;18.15;100735.19;4990325;28;20027;-72
2021/09/12 11:10:54;;;;;;;0.08;0.08;;;;;;;38.65;18.90;100731.63;4988572;28;20080;-74
2021/09/12 11:13:50;;;;;;;0.20;0.20;;;;;;;37.06;19.89;100724.31;4980996;28;20030;-73
2021/09/12 11:16:38;;;;;;;0.10;0.10;;;;;;;35.93;21.01;100719.28;4984352;28;20473;-73
2021/09/12 11:19:06;;;;;;;0.15;0.10;;;;;;;35.58;22.11;100720.72;4998227;28;20397;-72
2021/09/12 11:21:35;;;;;;;0.10;0.10;;;;;;;36.60;22.11;100721.25;4983432;28;20126;-72
2021/09/12 11:24:27;;;;;;;0.10;0.10;;;;;;;38.46;22.03;100714.22;4982739;28;20030;-73
2021/09/12 11:27:06;;;;;;;0.38;0.10;;;;;;;40.39;20.79;100719.75;4981158;28;20092;-73
2021/09/12 11:29:41;;;;;;;0.20;0.20;;;;;;;41.74;18.97;100728.31;4995854;28;20105;-73
2021/09/12 11:32:20;;;;;;;0.80;0.10;;;;;;;41.82;18.53;100726.75;4985155;28;20042;-73